Terminal Aerodrome Forecast
Issued by NWS Corpus Christi, TX

Home | Current Version | Previous Version | Text Only | Print | Product List | Glossary On
Versions: 1 2 3 4 5 6 7 8 9 10 11 12
387
FTUS44 KCRP 061735
TAFCRP
TAF
KCRP 061735Z 0618/0718 10010G18KT P6SM SCT035
     FM070000 12008KT P6SM SCT035
     FM070900 15005KT P6SM SCT025
     FM071500 16015G22KT P6SM SCT050=

USA.gov is the U.S. government's official web portal to all federal, state and local government web resources and services.